AFR84TL LFBD-LPPR
Flight info
| Callsign | AFR84TL |
|---|---|
| Flight time | N/A |
| Altitude | 33000 |
| Route | VAVIX DCT BTZ DCT URUNA DCT SSN DCT VRA DCT NEA DCT ZMR L155 ADORO DCT INKIT |
| Aircraft | A343/H-SDE2E3FGHIJ4J5M1RWXY/LB1D1 |
Departure
| Time | N/A |
|---|---|
| Airport | Bordeaux–Mérignac Airport (LFBD) |
Arrival
| Time | 2026-05-03 21:21 |
|---|---|
| Airport | Francisco de Sá Carneiro Airport (LPPR) |
| Time | Latitude | Longitude | Altitude | Speed | Heading |
|---|---|---|---|---|---|
| 2026-05-03 20:15 | 43.98132 | -1.10296 | 27501 ft | 399 kts | 216° |
| 2026-05-03 20:15 | 43.95905 | -1.12592 | 27937 ft | 400 kts | 216° |
| 2026-05-03 20:15 | 43.93663 | -1.14900 | 28390 ft | 401 kts | 216° |
| 2026-05-03 20:15 | 43.91424 | -1.17204 | 28853 ft | 402 kts | 216° |
| 2026-05-03 20:16 | 43.89172 | -1.19518 | 29275 ft | 403 kts | 217° |
| 2026-05-03 20:16 | 43.86913 | -1.21838 | 29668 ft | 405 kts | 217° |
| 2026-05-03 20:16 | 43.84648 | -1.24161 | 30057 ft | 406 kts | 217° |
| 2026-05-03 20:16 | 43.82372 | -1.26494 | 30362 ft | 408 kts | 217° |
| 2026-05-03 20:17 | 43.80085 | -1.28834 | 30651 ft | 410 kts | 217° |
| 2026-05-03 20:17 | 43.77786 | -1.31185 | 30957 ft | 411 kts | 217° |
| 2026-05-03 20:17 | 43.75481 | -1.33540 | 31252 ft | 413 kts | 217° |
| 2026-05-03 20:17 | 43.73164 | -1.35904 | 31547 ft | 414 kts | 217° |
| 2026-05-03 20:18 | 43.70847 | -1.38268 | 31919 ft | 414 kts | 217° |
| 2026-05-03 20:18 | 43.68535 | -1.40622 | 32349 ft | 412 kts | 217° |
| 2026-05-03 20:18 | 43.66236 | -1.42961 | 32766 ft | 410 kts | 217° |
| 2026-05-03 20:18 | 43.63932 | -1.45304 | 32928 ft | 410 kts | 217° |
| 2026-05-03 20:19 | 43.61697 | -1.47573 | 32920 ft | 400 kts | 217° |
| 2026-05-03 20:19 | 43.57235 | -1.52098 | 32944 ft | 397 kts | 217° |
| 2026-05-03 20:20 | 43.52784 | -1.56605 | 32938 ft | 396 kts | 217° |
| 2026-05-03 20:20 | 43.48341 | -1.61095 | 32939 ft | 396 kts | 217° |
| 2026-05-03 20:21 | 43.43900 | -1.65574 | 32939 ft | 396 kts | 217° |
| 2026-05-03 20:21 | 43.39454 | -1.70049 | 32943 ft | 397 kts | 217° |
| 2026-05-03 20:22 | 43.35281 | -1.75027 | 32941 ft | 399 kts | 228° |
| 2026-05-03 20:22 | 43.31909 | -1.81089 | 32941 ft | 402 kts | 234° |
| 2026-05-03 20:23 | 43.28687 | -1.87551 | 32944 ft | 418 kts | 232° |
| 2026-05-03 20:23 | 43.25141 | -1.94034 | 32949 ft | 432 kts | 231° |
| 2026-05-03 20:24 | 43.21460 | -2.00600 | 32945 ft | 434 kts | 231° |
| 2026-05-03 20:24 | 43.17792 | -2.07175 | 32947 ft | 434 kts | 231° |
| 2026-05-03 20:25 | 43.14136 | -2.13758 | 32954 ft | 435 kts | 231° |
| 2026-05-03 20:25 | 43.10467 | -2.20355 | 32945 ft | 437 kts | 231° |
| 2026-05-03 20:26 | 43.06786 | -2.26959 | 32948 ft | 436 kts | 231° |
| 2026-05-03 20:26 | 43.03100 | -2.33556 | 32947 ft | 437 kts | 231° |
| 2026-05-03 20:27 | 42.99409 | -2.40147 | 32927 ft | 437 kts | 231° |
| 2026-05-03 20:27 | 42.95715 | -2.46742 | 32945 ft | 437 kts | 231° |
| 2026-05-03 20:28 | 42.92007 | -2.53329 | 32943 ft | 438 kts | 231° |
| 2026-05-03 20:28 | 42.88293 | -2.59912 | 32966 ft | 438 kts | 231° |
| 2026-05-03 20:29 | 42.84574 | -2.66491 | 32966 ft | 438 kts | 231° |
| 2026-05-03 20:29 | 42.80857 | -2.73056 | 32966 ft | 438 kts | 231° |
| 2026-05-03 20:30 | 42.77132 | -2.79622 | 32962 ft | 438 kts | 231° |
| 2026-05-03 20:30 | 42.73433 | -2.86128 | 32941 ft | 438 kts | 231° |
| 2026-05-03 20:31 | 42.69741 | -2.92704 | 32938 ft | 438 kts | 232° |
| 2026-05-03 20:31 | 42.66079 | -2.99318 | 32935 ft | 438 kts | 232° |
| 2026-05-03 20:32 | 42.62417 | -3.05910 | 32970 ft | 438 kts | 231° |
| 2026-05-03 20:32 | 42.58742 | -3.12494 | 32940 ft | 436 kts | 231° |
| 2026-05-03 20:33 | 42.55073 | -3.19045 | 32940 ft | 436 kts | 232° |
| 2026-05-03 20:33 | 42.51400 | -3.25585 | 32944 ft | 436 kts | 232° |
| 2026-05-03 20:34 | 42.47719 | -3.32125 | 32951 ft | 436 kts | 232° |
| 2026-05-03 20:34 | 42.44036 | -3.38657 | 32959 ft | 436 kts | 232° |
| 2026-05-03 20:35 | 42.40349 | -3.45182 | 32976 ft | 436 kts | 232° |
| 2026-05-03 20:35 | 42.36672 | -3.51676 | 32966 ft | 434 kts | 232° |
| 2026-05-03 20:36 | 42.32992 | -3.58161 | 32965 ft | 435 kts | 232° |
| 2026-05-03 20:36 | 42.29307 | -3.64639 | 32966 ft | 435 kts | 232° |
| 2026-05-03 20:37 | 42.25620 | -3.71109 | 32961 ft | 434 kts | 232° |
| 2026-05-03 20:37 | 42.21944 | -3.77546 | 32942 ft | 433 kts | 232° |
| 2026-05-03 20:38 | 42.18266 | -3.83971 | 32963 ft | 433 kts | 231° |
| 2026-05-03 20:38 | 42.14587 | -3.90386 | 32953 ft | 432 kts | 231° |
| 2026-05-03 20:39 | 42.10906 | -3.96788 | 32942 ft | 432 kts | 232° |
| 2026-05-03 20:39 | 42.07228 | -4.03172 | 32950 ft | 431 kts | 232° |
| 2026-05-03 20:40 | 42.03624 | -4.09607 | 32950 ft | 431 kts | 236° |
| 2026-05-03 20:40 | 42.00879 | -4.16792 | 32948 ft | 433 kts | 244° |
| 2026-05-03 20:41 | 41.98489 | -4.24218 | 32945 ft | 433 kts | 245° |
| 2026-05-03 20:41 | 41.96148 | -4.31690 | 32950 ft | 433 kts | 245° |
| 2026-05-03 20:42 | 41.94195 | -4.37882 | 32951 ft | 433 kts | 245° |
| 2026-05-03 20:42 | 41.91827 | -4.45317 | 32952 ft | 433 kts | 244° |
| 2026-05-03 20:43 | 41.89444 | -4.52752 | 32934 ft | 433 kts | 245° |
| 2026-05-03 20:43 | 41.87058 | -4.60174 | 32968 ft | 433 kts | 245° |
| 2026-05-03 20:44 | 41.84670 | -4.67586 | 32956 ft | 433 kts | 245° |
| 2026-05-03 20:44 | 41.82276 | -4.75000 | 32962 ft | 433 kts | 244° |
| 2026-05-03 20:45 | 41.79877 | -4.82406 | 32966 ft | 433 kts | 244° |
| 2026-05-03 20:45 | 41.77476 | -4.89799 | 32961 ft | 433 kts | 244° |
| 2026-05-03 20:46 | 41.75068 | -4.97193 | 32980 ft | 433 kts | 244° |
| 2026-05-03 20:46 | 41.72663 | -5.04556 | 32966 ft | 431 kts | 244° |
| 2026-05-03 20:47 | 41.70256 | -5.11905 | 32965 ft | 431 kts | 244° |
| 2026-05-03 20:47 | 41.67862 | -5.19193 | 32964 ft | 431 kts | 244° |
| 2026-05-03 20:48 | 41.65431 | -5.26575 | 32948 ft | 431 kts | 244° |
| 2026-05-03 20:48 | 41.63031 | -5.33846 | 32983 ft | 429 kts | 244° |
| 2026-05-03 20:49 | 41.60619 | -5.41134 | 32968 ft | 429 kts | 244° |
| 2026-05-03 20:49 | 41.58203 | -5.48414 | 32971 ft | 429 kts | 244° |
| 2026-05-03 20:50 | 41.55780 | -5.55693 | 33046 ft | 430 kts | 244° |
| 2026-05-03 20:50 | 41.53527 | -5.63151 | 32978 ft | 434 kts | 251° |
| 2026-05-03 20:51 | 41.52487 | -5.71102 | 33001 ft | 435 kts | 259° |
| 2026-05-03 20:51 | 41.51877 | -5.79148 | 32979 ft | 436 kts | 261° |
| 2026-05-03 20:52 | 41.51329 | -5.87205 | 32979 ft | 436 kts | 261° |
| 2026-05-03 20:52 | 41.50761 | -5.95269 | 32979 ft | 436 kts | 261° |
| 2026-05-03 20:53 | 41.50171 | -6.03318 | 32980 ft | 436 kts | 260° |
| 2026-05-03 20:53 | 41.49284 | -6.11287 | 32989 ft | 433 kts | 255° |
| 2026-05-03 20:54 | 41.48001 | -6.19157 | 32980 ft | 435 kts | 255° |
| 2026-05-03 20:54 | 41.46021 | -6.30959 | 32978 ft | 435 kts | 254° |
| 2026-05-03 20:55 | 41.44695 | -6.38778 | 32702 ft | 424 kts | 254° |
| 2026-05-03 20:55 | 41.44052 | -6.42567 | 32431 ft | 415 kts | 254° |
| 2026-05-03 20:55 | 41.43413 | -6.46310 | 32169 ft | 415 kts | 254° |
| 2026-05-03 20:56 | 41.42769 | -6.50064 | 31933 ft | 417 kts | 254° |
| 2026-05-03 20:56 | 41.42122 | -6.53832 | 31674 ft | 418 kts | 254° |
| 2026-05-03 20:56 | 41.41474 | -6.57599 | 31399 ft | 416 kts | 254° |
| 2026-05-03 20:56 | 41.40836 | -6.61315 | 31072 ft | 408 kts | 254° |
| 2026-05-03 20:57 | 41.40204 | -6.64982 | 30629 ft | 403 kts | 254° |
| 2026-05-03 20:57 | 41.39579 | -6.68597 | 30196 ft | 399 kts | 254° |
| 2026-05-03 20:57 | 41.38959 | -6.72180 | 29709 ft | 395 kts | 254° |
| 2026-05-03 20:57 | 41.38344 | -6.75724 | 29269 ft | 390 kts | 254° |
| 2026-05-03 20:58 | 41.37738 | -6.79210 | 28837 ft | 384 kts | 254° |
| 2026-05-03 20:58 | 41.37139 | -6.82655 | 28418 ft | 379 kts | 254° |
| 2026-05-03 20:58 | 41.36546 | -6.86053 | 28025 ft | 375 kts | 254° |
| 2026-05-03 20:58 | 41.35958 | -6.89408 | 27595 ft | 370 kts | 254° |
| 2026-05-03 20:59 | 41.35376 | -6.92732 | 27157 ft | 368 kts | 254° |
| 2026-05-03 20:59 | 41.34793 | -6.96049 | 26754 ft | 367 kts | 254° |
| 2026-05-03 20:59 | 41.34214 | -6.99343 | 26346 ft | 365 kts | 254° |
| 2026-05-03 20:59 | 41.33635 | -7.02628 | 25932 ft | 364 kts | 254° |
| 2026-05-03 21:00 | 41.33059 | -7.05893 | 25515 ft | 362 kts | 254° |
| 2026-05-03 21:00 | 41.32678 | -7.08049 | 25236 ft | 361 kts | 254° |
| 2026-05-03 21:00 | 41.31909 | -7.12388 | 24677 ft | 359 kts | 254° |
| 2026-05-03 21:00 | 41.31336 | -7.15609 | 24253 ft | 357 kts | 254° |
| 2026-05-03 21:01 | 41.30767 | -7.18815 | 23845 ft | 356 kts | 254° |
| 2026-05-03 21:01 | 41.30198 | -7.22010 | 23435 ft | 354 kts | 254° |
| 2026-05-03 21:01 | 41.29632 | -7.25182 | 22959 ft | 351 kts | 254° |
| 2026-05-03 21:01 | 41.29070 | -7.28328 | 22517 ft | 348 kts | 254° |
| 2026-05-03 21:02 | 41.28518 | -7.31414 | 22141 ft | 347 kts | 254° |
| 2026-05-03 21:02 | 41.27952 | -7.34569 | 21733 ft | 346 kts | 254° |
| 2026-05-03 21:02 | 41.27402 | -7.37630 | 21336 ft | 344 kts | 254° |
| 2026-05-03 21:02 | 41.26847 | -7.40717 | 20926 ft | 343 kts | 254° |
| 2026-05-03 21:03 | 41.26286 | -7.43832 | 20528 ft | 341 kts | 254° |
| 2026-05-03 21:03 | 41.25741 | -7.46852 | 20127 ft | 340 kts | 254° |
| 2026-05-03 21:03 | 41.25189 | -7.49901 | 19730 ft | 338 kts | 254° |
| 2026-05-03 21:03 | 41.24641 | -7.52927 | 19329 ft | 337 kts | 254° |
| 2026-05-03 21:04 | 41.24009 | -7.55901 | 18983 ft | 333 kts | 250° |
| 2026-05-03 21:04 | 41.23297 | -7.58861 | 18152 ft | 342 kts | 250° |
| 2026-05-03 21:04 | 41.22543 | -7.61915 | 17171 ft | 353 kts | 250° |
| 2026-05-03 21:04 | 41.21762 | -7.65039 | 16325 ft | 360 kts | 250° |
| 2026-05-03 21:05 | 41.20965 | -7.68203 | 15571 ft | 363 kts | 250° |
| 2026-05-03 21:05 | 41.20159 | -7.71390 | 14862 ft | 365 kts | 250° |
| 2026-05-03 21:05 | 41.19354 | -7.74570 | 14089 ft | 361 kts | 251° |
| 2026-05-03 21:05 | 41.18560 | -7.77696 | 12773 ft | 353 kts | 251° |
| 2026-05-03 21:06 | 41.17794 | -7.80707 | 11760 ft | 335 kts | 250° |
| 2026-05-03 21:06 | 41.17057 | -7.83596 | 11351 ft | 332 kts | 250° |
| 2026-05-03 21:06 | 41.16323 | -7.86470 | 11114 ft | 325 kts | 250° |
| 2026-05-03 21:06 | 41.15603 | -7.89286 | 10754 ft | 321 kts | 250° |
| 2026-05-03 21:07 | 41.14898 | -7.92041 | 10610 ft | 309 kts | 250° |
| 2026-05-03 21:07 | 41.14218 | -7.94695 | 10479 ft | 298 kts | 250° |
| 2026-05-03 21:07 | 41.13560 | -7.97257 | 10358 ft | 288 kts | 250° |
| 2026-05-03 21:07 | 41.12926 | -7.99729 | 10231 ft | 279 kts | 250° |
| 2026-05-03 21:08 | 41.12310 | -8.02124 | 10107 ft | 271 kts | 250° |
| 2026-05-03 21:08 | 41.11707 | -8.04467 | 9887 ft | 267 kts | 250° |
| 2026-05-03 21:08 | 41.11107 | -8.06792 | 9571 ft | 267 kts | 250° |
| 2026-05-03 21:08 | 41.10508 | -8.09111 | 9307 ft | 264 kts | 251° |
| 2026-05-03 21:09 | 41.09913 | -8.11413 | 9070 ft | 265 kts | 251° |
| 2026-05-03 21:09 | 41.09317 | -8.13720 | 8829 ft | 263 kts | 251° |
| 2026-05-03 21:09 | 41.08722 | -8.16016 | 8572 ft | 263 kts | 251° |
| 2026-05-03 21:09 | 41.08127 | -8.18316 | 8370 ft | 264 kts | 251° |
| 2026-05-03 21:10 | 41.07535 | -8.20604 | 8134 ft | 262 kts | 251° |
| 2026-05-03 21:10 | 41.06945 | -8.22876 | 7901 ft | 261 kts | 251° |
| 2026-05-03 21:10 | 41.06351 | -8.25165 | 7659 ft | 262 kts | 251° |
| 2026-05-03 21:10 | 41.05762 | -8.27425 | 7437 ft | 257 kts | 251° |
| 2026-05-03 21:11 | 41.05186 | -8.29633 | 7268 ft | 250 kts | 252° |
| 2026-05-03 21:11 | 41.04627 | -8.31788 | 7063 ft | 245 kts | 252° |
| 2026-05-03 21:11 | 41.04073 | -8.33919 | 6790 ft | 244 kts | 252° |
| 2026-05-03 21:11 | 41.03518 | -8.36048 | 6480 ft | 245 kts | 252° |
| 2026-05-03 21:12 | 41.02964 | -8.38176 | 6182 ft | 244 kts | 253° |
| 2026-05-03 21:12 | 41.02412 | -8.40293 | 5899 ft | 243 kts | 252° |
| 2026-05-03 21:12 | 41.01858 | -8.42409 | 5615 ft | 243 kts | 253° |
| 2026-05-03 21:12 | 41.01305 | -8.44518 | 5319 ft | 242 kts | 253° |
| 2026-05-03 21:13 | 41.00755 | -8.46618 | 5037 ft | 241 kts | 253° |
| 2026-05-03 21:13 | 41.00269 | -8.48752 | 4719 ft | 242 kts | 259° |
| 2026-05-03 21:13 | 40.99921 | -8.50928 | 4418 ft | 242 kts | 261° |
| 2026-05-03 21:13 | 40.99600 | -8.53099 | 4119 ft | 240 kts | 261° |
| 2026-05-03 21:14 | 40.99273 | -8.55333 | 4014 ft | 254 kts | 261° |
| 2026-05-03 21:14 | 40.98932 | -8.57647 | 4001 ft | 258 kts | 261° |
| 2026-05-03 21:14 | 40.98585 | -8.59976 | 4003 ft | 258 kts | 261° |
| 2026-05-03 21:14 | 40.98261 | -8.62291 | 3987 ft | 249 kts | 266° |
| 2026-05-03 21:15 | 40.98608 | -8.64401 | 3988 ft | 229 kts | 304° |
| 2026-05-03 21:15 | 40.99798 | -8.65635 | 3959 ft | 216 kts | 342° |
| 2026-05-03 21:15 | 41.01269 | -8.65538 | 3723 ft | 217 kts | 21° |
| 2026-05-03 21:15 | 41.02625 | -8.64681 | 3336 ft | 215 kts | 21° |
| 2026-05-03 21:16 | 41.04020 | -8.64106 | 3045 ft | 210 kts | 9° |
| 2026-05-03 21:16 | 41.05429 | -8.63888 | 2992 ft | 197 kts | 0° |
| 2026-05-03 21:16 | 41.06744 | -8.63890 | 3016 ft | 179 kts | 355° |
| 2026-05-03 21:16 | 41.07905 | -8.63992 | 3000 ft | 157 kts | 353° |
| 2026-05-03 21:17 | 41.08975 | -8.64148 | 2879 ft | 153 kts | 351° |
| 2026-05-03 21:17 | 41.09676 | -8.64278 | 2710 ft | 147 kts | 350° |
| 2026-05-03 21:17 | 41.10966 | -8.64557 | 2461 ft | 140 kts | 348° |
| 2026-05-03 21:17 | 41.11923 | -8.64786 | 2261 ft | 140 kts | 348° |
| 2026-05-03 21:18 | 41.12874 | -8.65022 | 2087 ft | 139 kts | 348° |
| 2026-05-03 21:18 | 41.13832 | -8.65265 | 1902 ft | 140 kts | 348° |
| 2026-05-03 21:18 | 41.14785 | -8.65509 | 1716 ft | 139 kts | 346° |
| 2026-05-03 21:18 | 41.15734 | -8.65754 | 1528 ft | 139 kts | 346° |
| 2026-05-03 21:19 | 41.16680 | -8.65999 | 1346 ft | 137 kts | 346° |
| 2026-05-03 21:19 | 41.17609 | -8.66240 | 1167 ft | 134 kts | 348° |
| 2026-05-03 21:19 | 41.18493 | -8.66468 | 1063 ft | 126 kts | 347° |
| 2026-05-03 21:19 | 41.19351 | -8.66680 | 955 ft | 126 kts | 348° |
| 2026-05-03 21:20 | 41.20214 | -8.66913 | 833 ft | 127 kts | 347° |
| 2026-05-03 21:20 | 41.21089 | -8.67140 | 670 ft | 128 kts | 347° |
| 2026-05-03 21:20 | 41.21958 | -8.67384 | 531 ft | 128 kts | 347° |
| 2026-05-03 21:20 | 41.22819 | -8.67605 | 355 ft | 125 kts | 349° |
| 2026-05-03 21:21 | 41.23668 | -8.67829 | 237 ft | 121 kts | 348° |
| 2026-05-03 21:21 | 41.24256 | -8.67980 | 224 ft | 64 kts | 349° |
| 2026-05-03 21:21 | 41.24658 | -8.68087 | 214 ft | 54 kts | 348° |
| 2026-05-03 21:21 | 41.25002 | -8.68168 | 201 ft | 48 kts | 354° |
| 2026-05-03 21:22 | 41.25212 | -8.68133 | 185 ft | 19 kts | 16° |
| 2026-05-03 21:22 | 41.25252 | -8.68117 | 192 ft | 4 kts | 17° |
| 2026-05-03 21:22 | 41.25287 | -8.68085 | 183 ft | 7 kts | 45° |
| 2026-05-03 21:22 | 41.25289 | -8.68060 | 199 ft | 2 kts | 101° |
| 2026-05-03 21:23 | 41.25283 | -8.68047 | 196 ft | 6 kts | 120° |
| 2026-05-03 21:23 | 41.25255 | -8.68019 | 191 ft | 4 kts | 157° |
| 2026-05-03 21:23 | 41.25162 | -8.67986 | 195 ft | 20 kts | 166° |
| 2026-05-03 21:23 | 41.25030 | -8.67952 | 207 ft | 19 kts | 169° |
| 2026-05-03 21:24 | 41.24903 | -8.67917 | 213 ft | 18 kts | 163° |
| 2026-05-03 21:24 | 41.24780 | -8.67839 | 217 ft | 18 kts | 163° |
| 2026-05-03 21:24 | 41.24641 | -8.67798 | 216 ft | 28 kts | 168° |
| 2026-05-03 21:24 | 41.24457 | -8.67748 | 226 ft | 26 kts | 169° |
| 2026-05-03 21:25 | 41.24302 | -8.67694 | 239 ft | 17 kts | 143° |
| 2026-05-03 21:25 | 41.24232 | -8.67596 | 241 ft | 17 kts | 144° |
| 2026-05-03 21:25 | 41.24114 | -8.67552 | 242 ft | 19 kts | 169° |
| 2026-05-03 21:25 | 41.23981 | -8.67517 | 242 ft | 20 kts | 168° |
| 2026-05-03 21:26 | 41.23877 | -8.67488 | 243 ft | 12 kts | 168° |
| 2026-05-03 21:26 | 41.23812 | -8.67488 | 242 ft | 6 kts | 217° |
| 2026-05-03 21:26 | 41.23795 | -8.67538 | 239 ft | 2 kts | 256° |
| 2026-05-03 21:26 | 41.23792 | -8.67557 | 239 ft | 1 kts | 257° |
| 2026-05-03 21:27 | 41.23791 | -8.67563 | 239 ft | 0 kts | 257° |